Anza Borrego Desert State Park, California Weather observations

Data are for 10 minute period ending at time listed.
 Day   Time   Solar   Ave.   Ave.  Ave.  Vector  Max.   Baro.   Total    
  of    of     Rad.   Air    Rel.  Wind   Wind   Wind  Press.  Precip.   
Year   Day            Temp.  Hum.  Speed  Dir.   Gust                    
2017   (PST)  Kw/m2    F      %     mph   deg.    mph    mb.     in.     
-------------------------------------------------------------------------
  18    0:30   0.00   52.0    43    5.3   226     8.0   988.6    0.00 
  18    0:40   0.00   51.4    45    5.1   219     7.6   988.6    0.00 
  18    0:50   0.00   50.4    47    4.3   228     5.4   988.6    0.00 
  18    1:00   0.00   50.0    49    3.3   272     5.5   988.6    0.00 
  18    1:10   0.00   49.5    50    2.6   303     4.7   988.6    0.00 
  18    1:20   0.00   49.4    50    2.9   313     4.3   988.5    0.00 
  18    1:30   0.00   48.8    50    1.1   217     3.1   988.5    0.00 
  18    1:40   0.00   48.2    51    3.1   236     4.9   988.4    0.00 
  18    1:50   0.00   48.3    51    2.7   244     3.8   988.3    0.00 
  18    2:00   0.00   46.5    57    1.6   270     2.7   988.3    0.00 
  18    2:10   0.00   46.3    57    0.9   237     2.0   988.2    0.00 
  18    2:20   0.00   44.3    62    1.6   244     3.8   988.3    0.00 
  18    2:30   0.00   45.3    59    1.6   259     3.1   988.2    0.00 
  18    2:40   0.00   46.3    57    1.2   266     2.8   988.1    0.00 
  18    2:50   0.00   48.3    50    1.8   244     2.6   988.1    0.00 
  18    3:00   0.00   48.9    50    2.1   236     3.1   988.1    0.00 
  18    3:10   0.00   45.8    58    1.9   289     3.4   988.1    0.00 
  18    3:20   0.00   47.2    54    2.3   337     3.3   988.1    0.00 
  18    3:30   0.00   48.0    52    0.8   315     2.3   988.2    0.00 
  18    3:40   0.00   45.2    59    2.7   204     4.0   988.1    0.00 
  18    3:50   0.00   45.4    58    3.3   201     5.2   988.0    0.00 
  18    4:00   0.00   45.4    58    3.3   201     4.5   988.1    0.00 
  18    4:10   0.00   45.1    59    3.6   194     4.5   988.0    0.00 
  18    4:20   0.00   44.5    61    2.6   198     4.5   988.0    0.00 
  18    4:30   0.00   43.7    64    3.1   256     4.5   988.1    0.00 
  18    4:40   0.00   44.4    61    4.0   259     5.5   988.1    0.00 
  18    4:50   0.00   44.0    62    2.9   260     5.0   988.1    0.00 
  18    5:00   0.00   43.3    65    3.0   246     4.8   988.1    0.00 
  18    5:10   0.00   43.2    65    4.4   258     5.6   988.2    0.00 
  18    5:20   0.00   43.8    64    1.8   281     4.3   988.4    0.00 
  18    5:30   0.00   43.9    63    0.3   241     1.8   988.5    0.00 
  18    5:40   0.00   45.9    56    1.3   229     2.4   988.5    0.00 
  18    5:50   0.00   44.5    60    1.7   252     3.5   988.6    0.00 
  18    6:00   0.00   43.5    62    4.0   229     6.0   988.6    0.00 
  18    6:10   0.00   44.8    58    5.4   231     7.1   988.5    0.00 
  18    6:20   0.00   44.8    59    4.2   210     7.2   988.5    0.00 
  18    6:30   0.00   46.6    53    2.6    71     4.1   988.5    0.00 
  18    6:40   0.00   46.1    55    3.0   313     3.8   988.6    0.00 
  18    6:50   0.00   45.1    57    1.2   346     2.3   988.7    0.00 
  18    7:00   0.01   46.8    52    2.2   273     3.6   988.6    0.00 
  18    7:10   0.03   45.5    58    2.5   246     3.1   988.6    0.00 
  18    7:20   0.05   46.0    58    2.4   256     3.4   988.7    0.00 
  18    7:30   0.04   47.3    57    2.6   227     3.8   988.7    0.00 
  18    7:40   0.04   47.6    55    3.0   230     4.2   988.7    0.00 
  18    7:50   0.08   47.8    56    4.2   240     5.8   988.9    0.00 
  18    8:00   0.08   50.1    54    4.2   224     5.5   988.9    0.00 
  18    8:10   0.18   51.0    55    4.3   216     5.0   988.9    0.00 
  18    8:20   0.20   55.2    49    2.3   232     3.4   989.0    0.00 
  18    8:30   0.25   57.7    44    2.6   201     4.7   989.2    0.00 
  18    8:40   0.28   58.1    39    2.3   142     4.2   989.5    0.00 
  18    8:50   0.31   59.5    36    1.3   121     2.1   989.7    0.00 
  18    9:00   0.34   60.8    35    1.0    66     2.0   989.7    0.00 
  18    9:10   0.36   60.4    38    2.0    29     3.2   989.9    0.00 
  18    9:20   0.39   59.6    43    1.7    44     3.8   990.1    0.00 
  18    9:30   0.42   58.7    45    2.4    52     3.8   990.2    0.00 
  18    9:40   0.44   58.9    42    1.3    38     3.2   990.1    0.00 
  18    9:50   0.47   60.7    38    0.9   325     2.0   990.1    0.00 
  18   10:00   0.49   63.3    34    0.7   146     3.0   990.0    0.00 
  18   10:10   0.51   61.7    38    2.1    93     3.5   989.9    0.00 
  18   10:20   0.53   61.2    40    3.2   103     5.1   989.7    0.00 
  18   10:30   0.54   61.0    39    3.5   104     4.8   989.5    0.00 
  18   10:40   0.56   61.8    35    3.2    86     5.7   989.4    0.00 
  18   10:50   0.57   62.3    33    3.5    82     5.7   989.3    0.00 
  18   11:00   0.59   62.7    32    5.1    93     8.7   989.1    0.00 
  18   11:10   0.59   62.2    31    5.7   106     9.0   988.8    0.00 
  18   11:20   0.60   62.3    30    5.9   111     9.2   988.6    0.00 
  18   11:30   0.61   62.2    30    5.3   109     8.2   988.5    0.00 
  18   11:40   0.61   62.5    30    4.0   109     6.9   988.3    0.00 
  18   11:50   0.61   63.0    30    4.7   110     7.2   988.1    0.00 
  18   12:00   0.62   63.6    30    3.1   104     6.4   987.9    0.00 
  18   12:10   0.61   63.3    30    3.9    87     6.9   987.8    0.00 
  18   12:20   0.60   63.6    30    4.0    95     5.9   987.6    0.00 
  18   12:30   0.60   63.3    30    4.1    88     6.4   987.4    0.00 
  18   12:40   0.62   64.0    29    3.4    90     6.6   987.2    0.00 
  18   12:50   0.60   63.8    29    4.0    94     6.4   987.0    0.00 
  18   13:00   0.59   64.1    29    2.9   107     6.6   986.8    0.00 
  18   13:10   0.58   64.0    30    4.1    83     7.7   986.5    0.00 
  18   13:20   0.56   64.0    30    4.7    97     8.7   986.2    0.00 
  18   13:30   0.40   63.8    31    5.8   111     9.4   986.0    0.00 
  18   13:40   0.41   63.2    32    4.6   103     8.3   985.8    0.00 
  18   13:50   0.47   63.5    32    5.5   110     8.3   985.8    0.00 
  18   14:00   0.58   64.3    31    4.2    91     7.0   985.9    0.00 
  18   14:10   0.54   64.8    31    4.1   102     8.7   985.8    0.00 
  18   14:20   0.32   64.2    32    4.9   113     8.1   985.8    0.00 
  18   14:30   0.30   63.2    33    4.4    93     8.0   985.7    0.00 
  18   14:40   0.28   63.7    34    3.6   103     7.6   985.7    0.00 
  18   14:50   0.19   63.5    34    3.3   114     6.8   985.6    0.00 
  18   15:00   0.17   62.9    36    3.2   132     4.9   985.6    0.00 
  18   15:10   0.14   62.7    37    3.5   138     5.3   985.6    0.00 
  18   15:20   0.12   62.1    37    3.8   113     5.3   985.6    0.00 
  18   15:30   0.17   62.5    37    4.2   139     6.4   985.6    0.00 
  18   15:40   0.09   62.0    39    4.2   116     6.4   985.8    0.00 
  18   15:50   0.06   61.1    41    3.0   114     4.7   985.8    0.00 
  18   16:00   0.06   60.6    42    2.7    94     4.0   985.7    0.00 
  18   16:10   0.05   60.4    42    2.6   112     3.9   985.7    0.00 
  18   16:20   0.04   59.6    46    2.9   131     4.4   985.7    0.00 
  18   16:30   0.04   59.3    46    3.1   116     5.1   985.7    0.00 
  18   16:40   0.02   58.9    46    2.7   266     4.8   985.8    0.00 
  18   16:50   0.01   58.6    48    3.4   193     5.1   985.8    0.00 
  18   17:00   0.01   58.1    49    2.2   153     4.9   985.9    0.00 
  18   17:10   0.00   57.9    48    1.4   212     6.2   986.0    0.00 
  18   17:20   0.00   57.9    48    3.1   203     6.4   986.2    0.00 
  18   17:30   0.00   58.1    48    2.8   131     4.4   986.1    0.00 
  18   17:40   0.00   58.9    47    3.0   318     6.6   986.3    0.00 
  18   17:50   0.00   60.5    45    6.4   303    10.8   986.5    0.00 
  18   18:00   0.00   60.8    45    6.7   292    10.8   986.7    0.00 
  18   18:10   0.00   60.4    46    4.7   270    10.8   987.0    0.00 
  18   18:20   0.00   60.2    46    6.5   264    12.8   987.1    0.00 
  18   18:30   0.00   59.9    45    8.0   258    13.5   987.2    0.00 
  18   18:40   0.00   59.6    45   10.3   273    17.2   987.3    0.00 
  18   18:50   0.00   59.8    44   11.5   284    18.0   987.5    0.00 
  18   19:00   0.00   59.2    46   12.8   304    20.2   987.5    0.00 
  18   19:10   0.00   58.7    48   13.0   303    20.8   987.5    0.00 
  18   19:20   0.00   58.7    47   13.8   303    19.8   987.4    0.00 
  18   19:30   0.00   58.9    44   12.6   302    20.8   987.2    0.00 
  18   19:40   0.00   59.1    44    8.6   322    14.5   987.2    0.00 
  18   19:50   0.00   58.7    44    7.1   304    12.9   987.2    0.00 
  18   20:00   0.00   58.3    46    3.5     4     6.4   987.2    0.00 
  18   20:10   0.00   58.1    48    0.9   118     3.1   987.0    0.00 
  18   20:20   0.00   57.5    50    1.6    62     3.1   987.0    0.00 
  18   20:30   0.00   57.2    52    5.5   104     8.4   986.8    0.00 
  18   20:40   0.00   57.0    54    3.4   102     6.6   986.7    0.00 
  18   20:50   0.00   57.1    53    2.7   131     6.1   987.0    0.00 
  18   21:00   0.00   57.3    51    7.4   160    12.9   987.1    0.00 
  18   21:10   0.00   57.6    48    4.3   121    10.1   987.2    0.00 
  18   21:20   0.00   58.0    43    6.1   334    12.4   987.2    0.00 
  18   21:30   0.00   58.0    43    7.7   326    12.7   986.9    0.00 
  18   21:40   0.00   58.1    42    5.6   350    11.7   986.9    0.00 
  18   21:50   0.00   57.6    46    4.0    95    10.6   987.0    0.00 
  18   22:00   0.00   56.5    51    5.3    99     8.1   987.0    0.00 
  18   22:10   0.00   56.5    50    6.3   108     9.7   987.0    0.00 
  18   22:20   0.00   56.5    50    8.9   134    12.3   986.9    0.00 
  18   22:30   0.00   56.4    50    7.0   107     9.6   986.7    0.00 
  18   22:40   0.00   56.3    51    4.4   113     8.2   986.6    0.00 
  18   22:50   0.00   56.2    50    4.6   108     8.1   986.5    0.00 
  18   23:00   0.00   55.6    52    3.7   135     5.8   986.3    0.00 
  18   23:10   0.00   55.2    53    2.0   136     4.5   986.3    0.00 
  18   23:20   0.00   54.8    55    1.9   260     4.0   986.0    0.00 
  18   23:30   0.00   55.2    52    1.4    44     3.9   986.0    0.00 
  18   23:40   0.00   55.1    53    3.4   217     6.4   985.7    0.00 
  18   23:50   0.00   54.5    55    4.0   220     7.5   985.4    0.00 
  19    0:00   0.00   54.7    54    3.9   229     8.1   985.3    0.00 
  19    0:10   0.00   54.9    52    3.2   239     7.2   985.2    0.00 
  19    0:20   0.00   54.6    53    5.1   158    11.2   984.7    0.00 

Return to Anza Borrego Desert State Park graphs page.


Western Regional Climate Center,wrcc@dri.edu